ADDS METAR Data INFO
IDs: Format: Raw Decoded Include TAF

Data at: 0931 UTC 17 Oct 2017

K06D 170915Z AUTO 23012KT 10SM CLR 06/00 A2985 RMK AO2
K06D 170855Z AUTO 22011KT 10SM CLR 06/00 A2986 RMK AO2
K06D 170835Z AUTO 22012KT 10SM CLR 07/00 A2986 RMK AO2
K06D 170815Z AUTO 23008KT 10SM CLR 05/M00 A2987 RMK AO2
K06D 170755Z AUTO 22007KT 10SM CLR 05/M00 A2987 RMK AO2
K06D 170735Z AUTO 21007KT 10SM CLR 05/M00 A2987 RMK AO2
K06D 170715Z AUTO 19007KT 10SM CLR 04/M01 A2988 RMK AO2
K06D 170655Z AUTO 18006KT 10SM CLR 05/M01 A2989 RMK AO2
K06D 170635Z AUTO 18005KT 10SM CLR 04/M01 A2989 RMK AO2
K06D 170615Z AUTO 19004KT 10SM CLR 06/M00 A2989 RMK AO2
K06D 170555Z AUTO 00000KT 10SM CLR 09/M00 A2989 RMK AO2
K06D 170535Z AUTO VRB03KT 10SM CLR 11/M00 A2990 RMK AO2
K06D 170515Z AUTO 00000KT 10SM CLR 10/M00 A2990 RMK AO2
K06D 170455Z AUTO 28005KT 10SM CLR 10/00 A2990 RMK AO2
K06D 170435Z AUTO 28008KT 10SM CLR 10/00 A2990 RMK AO2
K06D 170415Z AUTO 27007G12KT 10SM CLR 11/00 A2990 RMK AO2
K06D 170355Z AUTO 27011KT 10SM CLR 10/00 A2990 RMK AO2
K06D 170335Z AUTO 26009KT 10SM CLR 09/00 A2990 RMK AO2
K06D 170315Z AUTO 25008KT 10SM CLR 12/00 A2990 RMK AO2
K06D 170255Z AUTO 27009KT 10SM CLR 12/00 A2990 RMK AO2
K06D 170235Z AUTO 27009KT 10SM CLR 12/00 A2990 RMK AO2
K06D 170215Z AUTO 28010KT 10SM CLR 12/01 A2990 RMK AO2
K06D 170155Z AUTO 27010KT 10SM CLR 12/01 A2990 RMK AO2
K06D 170135Z AUTO 27011KT 10SM CLR 13/01 A2989 RMK AO2
K06D 170115Z AUTO 27007KT 10SM CLR 11/00 A2989 RMK AO2
K06D 170055Z AUTO 26006KT 10SM CLR 10/M00 A2989 RMK AO2
K06D 170035Z AUTO 24007KT 10SM CLR 09/M00 A2988 RMK AO2
K06D 170015Z AUTO 22006KT 10SM CLR 10/M00 A2988 RMK AO2
K06D 162355Z AUTO 23007KT 10SM CLR 12/00 A2988 RMK AO2
K06D 162335Z AUTO 25005KT 10SM CLR 13/00 A2988 RMK AO2
K06D 162315Z AUTO 26006KT 10SM CLR 14/01 A2988 RMK AO2
K06D 162255Z AUTO 26007KT 10SM CLR 16/01 A2987 RMK AO2
K06D 162235Z AUTO 28007G13KT 10SM CLR 17/00 A2987 RMK AO2
K06D 162215Z AUTO 27010KT 10SM CLR 18/01 A2986 RMK AO2
K06D 162155Z AUTO 26009KT 10SM CLR 18/00 A2986 RMK AO2
K06D 162135Z AUTO 27010KT 10SM CLR 18/00 A2985 RMK AO2
K06D 162115Z AUTO 29010G15KT 10SM CLR 18/M00 A2985 RMK AO2
K06D 162055Z AUTO 29011G16KT 10SM CLR 18/00 A2985 RMK AO2
K06D 162035Z AUTO 28010G18KT 10SM CLR 18/00 A2985 RMK AO2
K06D 162015Z AUTO 29012KT 10SM CLR 18/01 A2984 RMK AO2
K06D 161955Z AUTO 27015KT 10SM CLR 18/01 A2984 RMK AO2
K06D 161935Z AUTO 28016KT 10SM CLR 18/00 A2983 RMK AO2
K06D 161915Z AUTO 29017KT 10SM CLR 18/00 A2984 RMK AO2
K06D 161835Z AUTO 27016KT 10SM CLR 17/01 A2984 RMK AO2
K06D 161815Z AUTO 27014KT 10SM CLR 16/01 A2984 RMK AO2
K06D 161755Z AUTO 26015G20KT 10SM CLR 16/01 A2984 RMK AO2
K06D 161735Z AUTO 26013KT 10SM CLR 14/01 A2984 RMK AO2
K06D 161715Z AUTO 27012G18KT 10SM CLR 14/01 A2984 RMK AO2
K06D 161655Z AUTO 28010G16KT 10SM CLR 12/01 A2985 RMK AO2
K06D 161635Z AUTO 27011G17KT 10SM CLR 11/00 A2984 RMK AO2
K06D 161615Z AUTO 25013KT 10SM CLR 10/00 A2984 RMK AO2
K06D 161555Z AUTO 25016KT 10SM CLR 09/M00 A2984 RMK AO2
K06D 161535Z AUTO 23017KT 10SM CLR 07/M01 A2984 RMK AO2
K06D 161515Z AUTO 24015G23KT 10SM CLR 07/M00 A2985 RMK AO2
K06D 161455Z AUTO 23016G22KT 10SM -UP CLR 06/M01 A2985 RMK AO2
K06D 161435Z AUTO 23016KT 10SM -UP CLR 05/M01 A2987 RMK AO2
K06D 161415Z AUTO 23018KT 10SM CLR 05/M01 A2985 RMK AO2
K06D 161355Z AUTO 22014KT 10SM CLR 03/M01 A2987 RMK AO2
K06D 161335Z AUTO 22010KT 10SM CLR 02/M01 A2988 RMK AO2
K06D 161315Z AUTO 21011KT 10SM CLR 02/M02 A2988 RMK AO2
K06D 161255Z AUTO 20008KT 10SM -SN CLR 00/M02 A2989 RMK AO2
K06D 161235Z AUTO 20007KT 10SM -SN CLR 00/M02 A2990 RMK AO2
K06D 161215Z AUTO 20008KT 10SM -SN CLR 00/M02 A2991 RMK AO2
K06D 161155Z AUTO 21007KT 10SM -SN CLR M00/M02 A2993 RMK AO2
K06D 161135Z AUTO 21008KT 10SM -SN CLR 00/M02 A2994 RMK AO2
K06D 161115Z AUTO 20007KT 10SM -SN CLR M00/M02 A2995 RMK AO2
K06D 161055Z AUTO 20008KT 10SM -SN CLR M00/M02 A2996 RMK AO2
K06D 161035Z AUTO 19007KT 10SM -SN CLR 00/M02 A2997 RMK AO2
K06D 161015Z AUTO 18006KT 10SM -SN CLR 00/M02 A2998 RMK AO2
K06D 160955Z AUTO 21006KT 10SM -SN CLR 02/M02 A2999 RMK AO2
K06D 160935Z AUTO 22008KT 10SM -SN CLR 02/M02 A2999 RMK AO2
K06D 160915Z AUTO 22010KT 10SM -SN CLR 01/M02 A3000 RMK AO2
K06D 160855Z AUTO 21004KT 10SM -SN CLR 00/M03 A3001 RMK AO2
K06D 160835Z AUTO 22010KT 10SM -SN CLR 01/M03 A3002 RMK AO2
K06D 160815Z AUTO 22009KT 10SM -SN CLR 01/M03 A3003 RMK AO2
K06D 160755Z AUTO 22010KT 10SM -SN CLR 02/M03 A3004 RMK AO2
K06D 160735Z AUTO 21008KT 10SM -SN CLR 01/M03 A3004 RMK AO2
K06D 160715Z AUTO 22006KT 10SM -SN FEW013 00/M03 A3004 RMK AO2
K06D 160655Z AUTO 22004KT 10SM -UP OVC013 02/M03 A3005 RMK AO2
K06D 160635Z AUTO 22008KT 10SM -UP BKN013 02/M03 A3006 RMK AO2
K06D 160615Z AUTO 23009KT 10SM CLR 03/M03 A3006 RMK AO2
K06D 160555Z AUTO 23011KT 10SM CLR 02/M03 A3007 RMK AO2
K06D 160535Z AUTO 23011KT 10SM -UP CLR 02/M03 A3008 RMK AO2
K06D 160515Z AUTO 24008KT 10SM CLR 00/M04 A3008 RMK AO2
K06D 160455Z AUTO 24006KT 10SM CLR 01/M03 A3008 RMK AO2
K06D 160435Z AUTO 23008KT 10SM CLR 02/M03 A3009 RMK AO2
K06D 160415Z AUTO 23009KT 10SM -SN CLR 01/M03 A3010 RMK AO2
K06D 160355Z AUTO 23007KT 10SM -SN CLR 01/M03 A3010 RMK AO2
K06D 160335Z AUTO 23007KT 10SM -SN CLR M00/M04 A3010 RMK AO2
K06D 160315Z AUTO 23007KT 10SM -SN CLR M02/M05 A3010 RMK AO2
K06D 160255Z AUTO 24009KT 10SM -SN CLR M01/M05 A3011 RMK AO2
K06D 160235Z AUTO 23005KT 10SM CLR M01/M05 A3011 RMK AO2
K06D 160215Z AUTO 22007KT 10SM -SN CLR M02/M06 A3011 RMK AO2
K06D 160155Z AUTO 22006KT 10SM CLR M01/M05 A3011 RMK AO2
K06D 160135Z AUTO 23007KT 10SM CLR M00/M05 A3011 RMK AO2
K06D 160115Z AUTO 23006KT 10SM CLR 00/M05 A3011 RMK AO2
K06D 160055Z AUTO 24006KT 10SM -UP CLR 02/M05 A3011 RMK AO2
K06D 160035Z AUTO 26006KT 10SM CLR 04/M03 A3010 RMK AO2
K06D 160015Z AUTO 27008KT 10SM CLR 05/M03 A3010 RMK AO2
K06D 152355Z AUTO 28008KT 10SM CLR 07/M03 A3010 RMK AO2
K06D 152335Z AUTO 29011KT 10SM CLR 09/M03 A3010 RMK AO2
K06D 152315Z AUTO 30013G20KT 10SM FEW050 09/M03 A3010 RMK AO2
K06D 152255Z AUTO 29012KT 10SM SCT050 10/M02 A3010 RMK AO2
K06D 152235Z AUTO 31015G21KT 10SM BKN050 BKN055 10/M03 A3009 RMK AO2
K06D 152215Z AUTO 29014G22KT 10SM BKN048 OVC055 10/M02 A3009 RMK AO2
K06D 152155Z AUTO 30015G21KT 10SM BKN048 BKN055 10/M02 A3009 RMK AO2
K06D 152135Z AUTO 30016KT 10SM BKN047 09/M02 A3008 RMK AO2